sensor_id;sensor_type;location;lat;lon;timestamp;P1;durP1;ratioP1;P2;durP2;ratioP2
75820;SDS011;64454;51.984;9.838;2023-05-10T00:01:34;6.30;;;2.72;;
75820;SDS011;64454;51.984;9.838;2023-05-10T00:04:01;3.88;;;3.17;;
75820;SDS011;64454;51.984;9.838;2023-05-10T00:06:30;4.27;;;3.00;;
75820;SDS011;64454;51.984;9.838;2023-05-10T00:08:57;5.75;;;2.95;;
75820;SDS011;64454;51.984;9.838;2023-05-10T00:11:24;4.20;;;2.70;;
75820;SDS011;64454;51.984;9.838;2023-05-10T00:13:51;3.63;;;2.80;;
75820;SDS011;64454;51.984;9.838;2023-05-10T00:16:17;3.42;;;3.00;;
75820;SDS011;64454;51.984;9.838;2023-05-10T00:18:44;5.87;;;3.17;;
75820;SDS011;64454;51.984;9.838;2023-05-10T00:21:11;6.75;;;2.90;;
75820;SDS011;64454;51.984;9.838;2023-05-10T00:23:39;4.22;;;2.83;;
75820;SDS011;64454;51.984;9.838;2023-05-10T00:26:06;2.95;;;2.65;;
75820;SDS011;64454;51.984;9.838;2023-05-10T00:28:33;3.80;;;2.77;;
75820;SDS011;64454;51.984;9.838;2023-05-10T00:31:00;3.97;;;2.70;;
75820;SDS011;64454;51.984;9.838;2023-05-10T00:33:26;4.00;;;2.90;;
75820;SDS011;64454;51.984;9.838;2023-05-10T00:35:53;4.05;;;2.80;;
75820;SDS011;64454;51.984;9.838;2023-05-10T00:38:20;5.13;;;2.88;;
75820;SDS011;64454;51.984;9.838;2023-05-10T00:40:48;4.20;;;3.00;;
75820;SDS011;64454;51.984;9.838;2023-05-10T00:43:15;3.80;;;2.90;;
75820;SDS011;64454;51.984;9.838;2023-05-10T00:45:42;4.30;;;2.80;;
75820;SDS011;64454;51.984;9.838;2023-05-10T00:48:09;6.97;;;3.40;;
75820;SDS011;64454;51.984;9.838;2023-05-10T00:50:36;4.22;;;2.97;;
75820;SDS011;64454;51.984;9.838;2023-05-10T00:53:04;4.20;;;3.40;;
75820;SDS011;64454;51.984;9.838;2023-05-10T00:55:32;7.22;;;3.17;;
75820;SDS011;64454;51.984;9.838;2023-05-10T00:58:00;3.47;;;2.80;;
75820;SDS011;64454;51.984;9.838;2023-05-10T01:00:27;4.20;;;3.00;;
75820;SDS011;64454;51.984;9.838;2023-05-10T01:02:54;4.60;;;3.00;;
75820;SDS011;64454;51.984;9.838;2023-05-10T01:05:21;4.50;;;2.80;;
75820;SDS011;64454;51.984;9.838;2023-05-10T01:07:48;3.40;;;3.10;;
75820;SDS011;64454;51.984;9.838;2023-05-10T01:10:15;3.30;;;2.70;;
75820;SDS011;64454;51.984;9.838;2023-05-10T01:12:43;4.18;;;2.90;;
75820;SDS011;64454;51.984;9.838;2023-05-10T01:15:14;3.35;;;2.72;;
75820;SDS011;64454;51.984;9.838;2023-05-10T01:17:43;5.38;;;3.20;;
75820;SDS011;64454;51.984;9.838;2023-05-10T01:20:12;3.33;;;2.73;;
75820;SDS011;64454;51.984;9.838;2023-05-10T01:22:50;3.90;;;2.70;;
75820;SDS011;64454;51.984;9.838;2023-05-10T01:25:43;5.10;;;3.10;;
75820;SDS011;64454;51.984;9.838;2023-05-10T01:29:03;5.30;;;3.17;;
75820;SDS011;64454;51.984;9.838;2023-05-10T01:32:07;3.30;;;3.00;;
75820;SDS011;64454;51.984;9.838;2023-05-10T01:34:53;5.40;;;3.20;;
75820;SDS011;64454;51.984;9.838;2023-05-10T01:37:28;3.80;;;2.83;;
75820;SDS011;64454;51.984;9.838;2023-05-10T01:40:08;5.78;;;3.40;;
75820;SDS011;64454;51.984;9.838;2023-05-10T01:42:46;3.70;;;3.10;;
75820;SDS011;64454;51.984;9.838;2023-05-10T01:45:19;4.80;;;3.20;;
75820;SDS011;64454;51.984;9.838;2023-05-10T01:47:57;3.67;;;2.70;;
75820;SDS011;64454;51.984;9.838;2023-05-10T01:50:32;3.88;;;2.83;;
75820;SDS011;64454;51.984;9.838;2023-05-10T01:53:03;4.63;;;2.90;;
75820;SDS011;64454;51.984;9.838;2023-05-10T01:55:38;3.95;;;3.00;;
75820;SDS011;64454;51.984;9.838;2023-05-10T01:58:12;4.60;;;2.90;;
75820;SDS011;64454;51.984;9.838;2023-05-10T02:00:44;4.10;;;2.70;;
75820;SDS011;64454;51.984;9.838;2023-05-10T02:03:14;3.55;;;3.00;;
75820;SDS011;64454;51.984;9.838;2023-05-10T02:05:46;3.55;;;3.15;;
75820;SDS011;64454;51.984;9.838;2023-05-10T02:08:16;4.10;;;2.88;;
75820;SDS011;64454;51.984;9.838;2023-05-10T02:10:46;3.93;;;3.00;;
75820;SDS011;64454;51.984;9.838;2023-05-10T02:13:16;4.65;;;2.80;;
75820;SDS011;64454;51.984;9.838;2023-05-10T02:15:45;3.85;;;3.00;;
75820;SDS011;64454;51.984;9.838;2023-05-10T02:18:16;6.30;;;3.05;;
75820;SDS011;64454;51.984;9.838;2023-05-10T02:20:44;5.30;;;3.30;;
75820;SDS011;64454;51.984;9.838;2023-05-10T02:23:13;3.60;;;2.78;;
75820;SDS011;64454;51.984;9.838;2023-05-10T02:25:43;3.45;;;2.95;;
75820;SDS011;64454;51.984;9.838;2023-05-10T02:28:13;3.58;;;2.78;;
75820;SDS011;64454;51.984;9.838;2023-05-10T02:30:43;3.30;;;2.70;;
75820;SDS011;64454;51.984;9.838;2023-05-10T02:33:10;3.50;;;3.20;;
75820;SDS011;64454;51.984;9.838;2023-05-10T02:35:39;3.75;;;3.03;;
75820;SDS011;64454;51.984;9.838;2023-05-10T02:38:07;3.77;;;3.07;;
75820;SDS011;64454;51.984;9.838;2023-05-10T02:40:36;3.53;;;3.10;;
75820;SDS011;64454;51.984;9.838;2023-05-10T02:43:07;4.50;;;3.10;;
75820;SDS011;64454;51.984;9.838;2023-05-10T02:45:39;4.43;;;3.70;;
75820;SDS011;64454;51.984;9.838;2023-05-10T02:48:08;3.50;;;3.20;;
75820;SDS011;64454;51.984;9.838;2023-05-10T02:50:35;4.80;;;2.80;;
75820;SDS011;64454;51.984;9.838;2023-05-10T02:53:09;4.00;;;3.28;;
75820;SDS011;64454;51.984;9.838;2023-05-10T02:55:41;3.80;;;3.10;;
75820;SDS011;64454;51.984;9.838;2023-05-10T02:58:17;3.78;;;3.03;;
75820;SDS011;64454;51.984;9.838;2023-05-10T03:00:45;4.22;;;3.05;;
75820;SDS011;64454;51.984;9.838;2023-05-10T03:03:12;4.57;;;3.00;;
75820;SDS011;64454;51.984;9.838;2023-05-10T03:05:41;4.73;;;3.47;;
75820;SDS011;64454;51.984;9.838;2023-05-10T03:08:07;5.00;;;3.00;;
75820;SDS011;64454;51.984;9.838;2023-05-10T03:10:48;4.25;;;3.40;;
75820;SDS011;64454;51.984;9.838;2023-05-10T03:13:31;5.13;;;3.58;;
75820;SDS011;64454;51.984;9.838;2023-05-10T03:16:07;6.40;;;3.13;;
75820;SDS011;64454;51.984;9.838;2023-05-10T03:18:41;3.47;;;3.17;;
75820;SDS011;64454;51.984;9.838;2023-05-10T03:21:16;3.50;;;3.20;;
75820;SDS011;64454;51.984;9.838;2023-05-10T03:23:47;4.33;;;3.30;;
75820;SDS011;64454;51.984;9.838;2023-05-10T03:26:25;4.13;;;3.13;;
75820;SDS011;64454;51.984;9.838;2023-05-10T03:28:54;3.78;;;3.05;;
75820;SDS011;64454;51.984;9.838;2023-05-10T03:31:24;4.78;;;3.42;;
75820;SDS011;64454;51.984;9.838;2023-05-10T03:33:52;3.50;;;3.20;;
75820;SDS011;64454;51.984;9.838;2023-05-10T03:36:20;3.97;;;3.50;;
75820;SDS011;64454;51.984;9.838;2023-05-10T03:38:47;3.75;;;3.25;;
75820;SDS011;64454;51.984;9.838;2023-05-10T03:41:14;4.40;;;3.40;;
75820;SDS011;64454;51.984;9.838;2023-05-10T03:43:41;5.07;;;3.20;;
75820;SDS011;64454;51.984;9.838;2023-05-10T03:46:08;5.15;;;3.70;;
75820;SDS011;64454;51.984;9.838;2023-05-10T03:48:34;3.90;;;3.20;;
75820;SDS011;64454;51.984;9.838;2023-05-10T03:51:01;3.80;;;3.38;;
75820;SDS011;64454;51.984;9.838;2023-05-10T03:53:31;3.50;;;3.20;;
75820;SDS011;64454;51.984;9.838;2023-05-10T03:55:58;4.00;;;3.60;;
75820;SDS011;64454;51.984;9.838;2023-05-10T03:58:25;5.50;;;3.50;;
75820;SDS011;64454;51.984;9.838;2023-05-10T04:00:51;3.80;;;3.15;;
75820;SDS011;64454;51.984;9.838;2023-05-10T04:03:20;6.03;;;3.28;;
75820;SDS011;64454;51.984;9.838;2023-05-10T04:05:47;5.70;;;3.10;;
75820;SDS011;64454;51.984;9.838;2023-05-10T04:08:14;4.20;;;3.40;;
75820;SDS011;64454;51.984;9.838;2023-05-10T04:10:43;4.28;;;3.17;;
75820;SDS011;64454;51.984;9.838;2023-05-10T04:13:10;4.90;;;3.30;;
75820;SDS011;64454;51.984;9.838;2023-05-10T04:15:36;6.50;;;3.67;;
75820;SDS011;64454;51.984;9.838;2023-05-10T04:18:03;6.22;;;3.70;;
75820;SDS011;64454;51.984;9.838;2023-05-10T04:20:31;5.63;;;3.80;;
75820;SDS011;64454;51.984;9.838;2023-05-10T04:22:59;5.57;;;3.58;;
75820;SDS011;64454;51.984;9.838;2023-05-10T04:25:25;5.68;;;3.40;;
75820;SDS011;64454;51.984;9.838;2023-05-10T04:27:54;4.30;;;3.90;;
75820;SDS011;64454;51.984;9.838;2023-05-10T04:30:20;4.45;;;3.97;;
75820;SDS011;64454;51.984;9.838;2023-05-10T04:32:47;6.70;;;4.53;;
75820;SDS011;64454;51.984;9.838;2023-05-10T04:35:14;5.40;;;4.30;;
75820;SDS011;64454;51.984;9.838;2023-05-10T04:37:41;6.60;;;4.28;;
75820;SDS011;64454;51.984;9.838;2023-05-10T04:40:08;6.93;;;4.07;;
75820;SDS011;64454;51.984;9.838;2023-05-10T04:42:36;4.50;;;4.10;;
75820;SDS011;64454;51.984;9.838;2023-05-10T04:45:05;5.10;;;4.00;;
75820;SDS011;64454;51.984;9.838;2023-05-10T04:47:34;4.90;;;4.07;;
75820;SDS011;64454;51.984;9.838;2023-05-10T04:50:02;5.97;;;4.20;;
75820;SDS011;64454;51.984;9.838;2023-05-10T04:52:29;6.05;;;4.90;;
75820;SDS011;64454;51.984;9.838;2023-05-10T04:54:56;4.40;;;3.90;;
75820;SDS011;64454;51.984;9.838;2023-05-10T04:57:23;6.32;;;4.53;;
75820;SDS011;64454;51.984;9.838;2023-05-10T04:59:49;4.90;;;4.40;;
75820;SDS011;64454;51.984;9.838;2023-05-10T05:02:18;7.15;;;4.40;;
75820;SDS011;64454;51.984;9.838;2023-05-10T05:04:45;5.65;;;4.40;;
75820;SDS011;64454;51.984;9.838;2023-05-10T05:07:12;6.03;;;4.82;;
75820;SDS011;64454;51.984;9.838;2023-05-10T05:09:38;5.22;;;4.50;;
75820;SDS011;64454;51.984;9.838;2023-05-10T05:12:05;4.72;;;4.22;;
75820;SDS011;64454;51.984;9.838;2023-05-10T05:14:32;5.22;;;4.72;;
75820;SDS011;64454;51.984;9.838;2023-05-10T05:16:59;5.20;;;4.70;;
75820;SDS011;64454;51.984;9.838;2023-05-10T05:19:27;7.97;;;4.93;;
75820;SDS011;64454;51.984;9.838;2023-05-10T05:21:54;5.68;;;5.07;;
75820;SDS011;64454;51.984;9.838;2023-05-10T05:24:21;5.30;;;4.20;;
75820;SDS011;64454;51.984;9.838;2023-05-10T05:26:48;7.18;;;5.20;;
75820;SDS011;64454;51.984;9.838;2023-05-10T05:29:15;7.63;;;5.32;;
75820;SDS011;64454;51.984;9.838;2023-05-10T05:31:44;7.93;;;5.47;;
75820;SDS011;64454;51.984;9.838;2023-05-10T05:34:11;7.05;;;5.22;;
75820;SDS011;64454;51.984;9.838;2023-05-10T05:36:39;5.35;;;4.78;;
75820;SDS011;64454;51.984;9.838;2023-05-10T05:39:06;6.95;;;5.05;;
75820;SDS011;64454;51.984;9.838;2023-05-10T05:41:33;6.80;;;4.90;;
75820;SDS011;64454;51.984;9.838;2023-05-10T05:44:00;5.50;;;4.40;;
75820;SDS011;64454;51.984;9.838;2023-05-10T05:46:27;6.03;;;4.68;;
75820;SDS011;64454;51.984;9.838;2023-05-10T05:48:54;5.90;;;5.00;;
75820;SDS011;64454;51.984;9.838;2023-05-10T05:51:20;5.63;;;5.13;;
75820;SDS011;64454;51.984;9.838;2023-05-10T05:53:48;7.20;;;5.38;;
75820;SDS011;64454;51.984;9.838;2023-05-10T05:56:15;5.55;;;4.90;;
75820;SDS011;64454;51.984;9.838;2023-05-10T05:58:48;5.87;;;5.27;;
75820;SDS011;64454;51.984;9.838;2023-05-10T06:01:15;5.67;;;4.60;;
75820;SDS011;64454;51.984;9.838;2023-05-10T06:03:42;8.23;;;4.70;;
75820;SDS011;64454;51.984;9.838;2023-05-10T06:06:09;5.38;;;4.30;;
75820;SDS011;64454;51.984;9.838;2023-05-10T06:08:36;5.88;;;4.75;;
75820;SDS011;64454;51.984;9.838;2023-05-10T06:11:04;5.78;;;4.60;;
75820;SDS011;64454;51.984;9.838;2023-05-10T06:13:31;5.35;;;4.28;;
75820;SDS011;64454;51.984;9.838;2023-05-10T06:16:00;5.95;;;4.70;;
75820;SDS011;64454;51.984;9.838;2023-05-10T06:18:28;5.57;;;4.72;;
75820;SDS011;64454;51.984;9.838;2023-05-10T06:20:54;5.20;;;4.53;;
75820;SDS011;64454;51.984;9.838;2023-05-10T06:23:22;6.28;;;4.65;;
75820;SDS011;64454;51.984;9.838;2023-05-10T06:25:50;6.00;;;4.60;;
75820;SDS011;64454;51.984;9.838;2023-05-10T06:28:18;6.22;;;4.20;;
75820;SDS011;64454;51.984;9.838;2023-05-10T06:30:46;6.20;;;4.60;;
75820;SDS011;64454;51.984;9.838;2023-05-10T06:33:12;5.32;;;4.82;;
75820;SDS011;64454;51.984;9.838;2023-05-10T06:35:40;5.00;;;4.50;;
75820;SDS011;64454;51.984;9.838;2023-05-10T06:38:07;7.38;;;5.80;;
75820;SDS011;64454;51.984;9.838;2023-05-10T06:40:34;7.40;;;4.55;;
75820;SDS011;64454;51.984;9.838;2023-05-10T06:43:01;5.60;;;4.95;;
75820;SDS011;64454;51.984;9.838;2023-05-10T06:45:29;5.35;;;4.60;;
75820;SDS011;64454;51.984;9.838;2023-05-10T06:47:56;5.35;;;4.70;;
75820;SDS011;64454;51.984;9.838;2023-05-10T06:50:23;4.93;;;4.43;;
75820;SDS011;64454;51.984;9.838;2023-05-10T06:52:49;6.20;;;5.00;;
75820;SDS011;64454;51.984;9.838;2023-05-10T06:55:16;6.13;;;4.90;;
75820;SDS011;64454;51.984;9.838;2023-05-10T06:57:43;7.03;;;5.27;;
75820;SDS011;64454;51.984;9.838;2023-05-10T07:00:10;6.10;;;5.00;;
75820;SDS011;64454;51.984;9.838;2023-05-10T07:02:39;5.50;;;4.68;;
75820;SDS011;64454;51.984;9.838;2023-05-10T07:05:06;6.50;;;5.20;;
75820;SDS011;64454;51.984;9.838;2023-05-10T07:07:34;6.93;;;5.30;;
75820;SDS011;64454;51.984;9.838;2023-05-10T07:10:00;6.80;;;5.10;;
75820;SDS011;64454;51.984;9.838;2023-05-10T07:12:27;5.40;;;4.90;;
75820;SDS011;64454;51.984;9.838;2023-05-10T07:14:54;5.70;;;5.10;;
75820;SDS011;64454;51.984;9.838;2023-05-10T07:17:21;6.22;;;5.18;;
75820;SDS011;64454;51.984;9.838;2023-05-10T07:19:49;5.25;;;4.75;;
75820;SDS011;64454;51.984;9.838;2023-05-10T07:22:16;9.25;;;5.00;;
75820;SDS011;64454;51.984;9.838;2023-05-10T07:24:43;5.55;;;4.95;;
75820;SDS011;64454;51.984;9.838;2023-05-10T07:27:10;5.60;;;4.90;;
75820;SDS011;64454;51.984;9.838;2023-05-10T07:29:37;7.03;;;4.57;;
75820;SDS011;64454;51.984;9.838;2023-05-10T07:32:05;7.07;;;4.82;;
75820;SDS011;64454;51.984;9.838;2023-05-10T07:34:32;5.18;;;4.50;;
75820;SDS011;64454;51.984;9.838;2023-05-10T07:37:00;6.55;;;4.47;;
75820;SDS011;64454;51.984;9.838;2023-05-10T07:39:27;5.43;;;4.55;;
75820;SDS011;64454;51.984;9.838;2023-05-10T07:41:54;5.18;;;4.22;;
75820;SDS011;64454;51.984;9.838;2023-05-10T07:44:22;4.90;;;4.00;;
75820;SDS011;64454;51.984;9.838;2023-05-10T07:46:49;4.20;;;3.80;;
75820;SDS011;64454;51.984;9.838;2023-05-10T07:49:16;3.92;;;3.53;;
75820;SDS011;64454;51.984;9.838;2023-05-10T07:51:44;5.23;;;4.20;;
75820;SDS011;64454;51.984;9.838;2023-05-10T07:54:13;4.40;;;3.50;;
75820;SDS011;64454;51.984;9.838;2023-05-10T07:56:41;3.97;;;3.45;;
75820;SDS011;64454;51.984;9.838;2023-05-10T07:59:14;4.13;;;3.38;;
75820;SDS011;64454;51.984;9.838;2023-05-10T08:01:44;4.90;;;3.90;;
75820;SDS011;64454;51.984;9.838;2023-05-10T08:04:11;4.97;;;3.80;;
75820;SDS011;64454;51.984;9.838;2023-05-10T08:06:39;4.38;;;3.80;;
75820;SDS011;64454;51.984;9.838;2023-05-10T08:09:06;3.70;;;3.40;;
75820;SDS011;64454;51.984;9.838;2023-05-10T08:11:34;3.90;;;3.50;;
75820;SDS011;64454;51.984;9.838;2023-05-10T08:14:01;5.40;;;3.33;;
75820;SDS011;64454;51.984;9.838;2023-05-10T08:16:27;4.30;;;3.72;;
75820;SDS011;64454;51.984;9.838;2023-05-10T08:18:54;4.20;;;3.80;;
75820;SDS011;64454;51.984;9.838;2023-05-10T08:21:21;4.30;;;3.13;;
75820;SDS011;64454;51.984;9.838;2023-05-10T08:23:48;3.13;;;2.83;;
75820;SDS011;64454;51.984;9.838;2023-05-10T08:26:15;2.90;;;2.60;;
75820;SDS011;64454;51.984;9.838;2023-05-10T08:28:43;3.50;;;3.20;;
75820;SDS011;64454;51.984;9.838;2023-05-10T08:31:09;3.13;;;2.67;;
75820;SDS011;64454;51.984;9.838;2023-05-10T08:33:36;3.40;;;2.80;;
75820;SDS011;64454;51.984;9.838;2023-05-10T08:36:03;3.90;;;2.78;;
75820;SDS011;64454;51.984;9.838;2023-05-10T08:38:30;1.65;;;1.55;;
75820;SDS011;64454;51.984;9.838;2023-05-10T08:40:57;2.83;;;1.73;;
75820;SDS011;64454;51.984;9.838;2023-05-10T08:43:26;1.30;;;1.20;;
75820;SDS011;64454;51.984;9.838;2023-05-10T08:45:56;1.75;;;1.25;;
75820;SDS011;64454;51.984;9.838;2023-05-10T08:48:26;1.23;;;1.00;;
75820;SDS011;64454;51.984;9.838;2023-05-10T08:50:55;2.00;;;0.80;;
75820;SDS011;64454;51.984;9.838;2023-05-10T08:53:27;1.20;;;0.80;;
75820;SDS011;64454;51.984;9.838;2023-05-10T08:55:57;0.98;;;0.55;;
75820;SDS011;64454;51.984;9.838;2023-05-10T08:58:23;0.93;;;0.47;;
75820;SDS011;64454;51.984;9.838;2023-05-10T09:00:51;1.60;;;0.50;;
75820;SDS011;64454;51.984;9.838;2023-05-10T09:03:20;2.20;;;0.50;;
75820;SDS011;64454;51.984;9.838;2023-05-10T09:05:47;1.60;;;0.60;;
75820;SDS011;64454;51.984;9.838;2023-05-10T09:08:14;1.00;;;0.50;;
75820;SDS011;64454;51.984;9.838;2023-05-10T09:10:42;0.75;;;0.40;;
75820;SDS011;64454;51.984;9.838;2023-05-10T09:13:12;2.20;;;0.55;;
75820;SDS011;64454;51.984;9.838;2023-05-10T09:15:40;0.82;;;0.50;;
75820;SDS011;64454;51.984;9.838;2023-05-10T09:18:07;0.90;;;0.50;;
75820;SDS011;64454;51.984;9.838;2023-05-10T09:20:35;1.00;;;0.60;;
75820;SDS011;64454;51.984;9.838;2023-05-10T09:23:02;1.35;;;0.70;;
75820;SDS011;64454;51.984;9.838;2023-05-10T09:25:30;1.30;;;0.50;;
75820;SDS011;64454;51.984;9.838;2023-05-10T09:27:58;1.80;;;0.70;;
75820;SDS011;64454;51.984;9.838;2023-05-10T09:30:25;2.43;;;0.70;;
75820;SDS011;64454;51.984;9.838;2023-05-10T09:32:54;1.83;;;0.60;;
75820;SDS011;64454;51.984;9.838;2023-05-10T09:35:24;1.25;;;0.77;;
75820;SDS011;64454;51.984;9.838;2023-05-10T09:37:55;2.50;;;0.70;;
75820;SDS011;64454;51.984;9.838;2023-05-10T09:40:26;1.50;;;0.70;;
75820;SDS011;64454;51.984;9.838;2023-05-10T09:42:55;2.55;;;0.65;;
75820;SDS011;64454;51.984;9.838;2023-05-10T09:45:24;2.20;;;0.80;;
75820;SDS011;64454;51.984;9.838;2023-05-10T09:47:53;1.00;;;0.70;;
75820;SDS011;64454;51.984;9.838;2023-05-10T09:50:20;1.02;;;0.65;;
75820;SDS011;64454;51.984;9.838;2023-05-10T09:52:49;3.70;;;0.80;;
75820;SDS011;64454;51.984;9.838;2023-05-10T09:55:20;1.70;;;0.90;;
75820;SDS011;64454;51.984;9.838;2023-05-10T09:57:49;1.20;;;0.70;;
75820;SDS011;64454;51.984;9.838;2023-05-10T10:00:26;1.17;;;0.80;;
75820;SDS011;64454;51.984;9.838;2023-05-10T10:02:54;1.50;;;1.00;;
75820;SDS011;64454;51.984;9.838;2023-05-10T10:05:27;3.30;;;1.02;;
75820;SDS011;64454;51.984;9.838;2023-05-10T10:07:55;1.80;;;0.77;;
75820;SDS011;64454;51.984;9.838;2023-05-10T10:10:25;1.20;;;0.70;;
75820;SDS011;64454;51.984;9.838;2023-05-10T10:12:52;2.40;;;0.80;;
75820;SDS011;64454;51.984;9.838;2023-05-10T10:15:20;1.65;;;1.05;;
75820;SDS011;64454;51.984;9.838;2023-05-10T10:17:47;2.90;;;0.93;;
75820;SDS011;64454;51.984;9.838;2023-05-10T10:20:15;1.67;;;0.82;;
75820;SDS011;64454;51.984;9.838;2023-05-10T10:22:42;1.50;;;1.10;;
75820;SDS011;64454;51.984;9.838;2023-05-10T10:25:10;1.48;;;0.80;;
75820;SDS011;64454;51.984;9.838;2023-05-10T10:27:42;1.90;;;0.90;;
75820;SDS011;64454;51.984;9.838;2023-05-10T10:30:23;3.30;;;1.00;;
75820;SDS011;64454;51.984;9.838;2023-05-10T10:33:06;3.55;;;1.40;;
75820;SDS011;64454;51.984;9.838;2023-05-10T10:35:54;2.03;;;1.10;;
75820;SDS011;64454;51.984;9.838;2023-05-10T10:38:24;1.42;;;0.93;;
75820;SDS011;64454;51.984;9.838;2023-05-10T10:41:01;3.83;;;1.10;;
75820;SDS011;64454;51.984;9.838;2023-05-10T10:43:30;2.00;;;1.10;;
75820;SDS011;64454;51.984;9.838;2023-05-10T10:46:09;2.60;;;1.10;;
75820;SDS011;64454;51.984;9.838;2023-05-10T10:48:38;2.87;;;1.10;;
75820;SDS011;64454;51.984;9.838;2023-05-10T10:51:06;2.78;;;1.77;;
75820;SDS011;64454;51.984;9.838;2023-05-10T10:53:32;2.15;;;0.95;;
75820;SDS011;64454;51.984;9.838;2023-05-10T10:56:06;2.60;;;1.10;;
75820;SDS011;64454;51.984;9.838;2023-05-10T10:58:35;6.20;;;1.50;;
75820;SDS011;64454;51.984;9.838;2023-05-10T11:01:11;5.38;;;1.15;;
75820;SDS011;64454;51.984;9.838;2023-05-10T11:03:40;2.10;;;1.10;;
75820;SDS011;64454;51.984;9.838;2023-05-10T11:06:39;1.20;;;0.90;;
75820;SDS011;64454;51.984;9.838;2023-05-10T11:09:07;2.20;;;1.10;;
75820;SDS011;64454;51.984;9.838;2023-05-10T11:11:37;1.75;;;1.35;;
75820;SDS011;64454;51.984;9.838;2023-05-10T11:14:21;4.20;;;1.00;;
75820;SDS011;64454;51.984;9.838;2023-05-10T11:16:48;6.25;;;1.50;;
75820;SDS011;64454;51.984;9.838;2023-05-10T11:19:16;1.90;;;1.20;;
75820;SDS011;64454;51.984;9.838;2023-05-10T11:21:46;3.92;;;1.40;;
75820;SDS011;64454;51.984;9.838;2023-05-10T11:24:16;3.25;;;1.27;;
75820;SDS011;64454;51.984;9.838;2023-05-10T11:26:48;2.40;;;1.20;;
75820;SDS011;64454;51.984;9.838;2023-05-10T11:29:17;1.92;;;1.10;;
75820;SDS011;64454;51.984;9.838;2023-05-10T11:31:47;2.90;;;1.65;;
75820;SDS011;64454;51.984;9.838;2023-05-10T11:34:25;3.60;;;1.75;;
75820;SDS011;64454;51.984;9.838;2023-05-10T11:36:55;2.43;;;1.40;;
75820;SDS011;64454;51.984;9.838;2023-05-10T11:39:25;2.00;;;1.50;;
75820;SDS011;64454;51.984;9.838;2023-05-10T11:41:54;1.80;;;1.30;;
75820;SDS011;64454;51.984;9.838;2023-05-10T11:44:22;1.90;;;1.40;;
75820;SDS011;64454;51.984;9.838;2023-05-10T11:46:50;2.63;;;1.48;;
75820;SDS011;64454;51.984;9.838;2023-05-10T11:49:18;1.80;;;1.13;;
75820;SDS011;64454;51.984;9.838;2023-05-10T11:51:48;3.13;;;1.25;;
75820;SDS011;64454;51.984;9.838;2023-05-10T11:54:16;1.92;;;1.20;;
75820;SDS011;64454;51.984;9.838;2023-05-10T11:56:45;2.30;;;1.20;;
75820;SDS011;64454;51.984;9.838;2023-05-10T11:59:13;2.75;;;1.10;;
75820;SDS011;64454;51.984;9.838;2023-05-10T12:01:44;3.25;;;1.40;;
75820;SDS011;64454;51.984;9.838;2023-05-10T12:04:11;1.88;;;1.30;;
75820;SDS011;64454;51.984;9.838;2023-05-10T12:06:39;2.00;;;1.50;;
75820;SDS011;64454;51.984;9.838;2023-05-10T12:09:07;5.20;;;1.00;;
75820;SDS011;64454;51.984;9.838;2023-05-10T12:11:37;2.38;;;1.40;;
75820;SDS011;64454;51.984;9.838;2023-05-10T12:14:06;2.40;;;1.40;;
75820;SDS011;64454;51.984;9.838;2023-05-10T12:16:35;1.90;;;1.27;;
75820;SDS011;64454;51.984;9.838;2023-05-10T12:19:03;1.58;;;1.10;;
75820;SDS011;64454;51.984;9.838;2023-05-10T12:21:31;1.60;;;1.10;;
75820;SDS011;64454;51.984;9.838;2023-05-10T12:23:59;2.75;;;1.20;;
75820;SDS011;64454;51.984;9.838;2023-05-10T12:26:28;3.20;;;1.40;;
75820;SDS011;64454;51.984;9.838;2023-05-10T12:29:11;3.33;;;1.40;;
75820;SDS011;64454;51.984;9.838;2023-05-10T12:31:48;2.50;;;1.42;;
75820;SDS011;64454;51.984;9.838;2023-05-10T12:34:30;3.38;;;1.70;;
75820;SDS011;64454;51.984;9.838;2023-05-10T12:36:58;2.08;;;1.70;;
75820;SDS011;64454;51.984;9.838;2023-05-10T12:39:26;4.03;;;2.13;;
75820;SDS011;64454;51.984;9.838;2023-05-10T12:42:05;3.07;;;1.60;;
75820;SDS011;64454;51.984;9.838;2023-05-10T12:44:32;2.70;;;1.70;;
75820;SDS011;64454;51.984;9.838;2023-05-10T12:46:58;1.85;;;1.65;;
75820;SDS011;64454;51.984;9.838;2023-05-10T12:49:25;2.75;;;1.90;;
75820;SDS011;64454;51.984;9.838;2023-05-10T12:51:53;2.28;;;1.60;;
75820;SDS011;64454;51.984;9.838;2023-05-10T12:54:20;3.30;;;1.73;;
75820;SDS011;64454;51.984;9.838;2023-05-10T12:56:47;5.38;;;2.10;;
75820;SDS011;64454;51.984;9.838;2023-05-10T12:59:14;4.20;;;2.10;;
75820;SDS011;64454;51.984;9.838;2023-05-10T13:01:43;4.78;;;2.20;;
75820;SDS011;64454;51.984;9.838;2023-05-10T13:04:10;2.72;;;1.90;;
75820;SDS011;64454;51.984;9.838;2023-05-10T13:06:39;2.67;;;1.90;;
75820;SDS011;64454;51.984;9.838;2023-05-10T13:09:05;2.90;;;2.10;;
75820;SDS011;64454;51.984;9.838;2023-05-10T13:11:32;2.45;;;2.15;;
75820;SDS011;64454;51.984;9.838;2023-05-10T13:13:59;4.90;;;2.35;;
75820;SDS011;64454;51.984;9.838;2023-05-10T13:16:28;3.83;;;2.13;;
75820;SDS011;64454;51.984;9.838;2023-05-10T13:18:55;2.70;;;2.15;;
75820;SDS011;64454;51.984;9.838;2023-05-10T13:21:21;4.13;;;2.70;;
75820;SDS011;64454;51.984;9.838;2023-05-10T13:23:50;3.80;;;2.50;;
75820;SDS011;64454;51.984;9.838;2023-05-10T13:26:17;5.65;;;3.30;;
75820;SDS011;64454;51.984;9.838;2023-05-10T13:28:45;3.72;;;2.50;;
75820;SDS011;64454;51.984;9.838;2023-05-10T13:31:11;4.43;;;2.92;;
75820;SDS011;64454;51.984;9.838;2023-05-10T13:33:38;4.95;;;3.13;;
75820;SDS011;64454;51.984;9.838;2023-05-10T13:36:05;3.80;;;2.80;;
75820;SDS011;64454;51.984;9.838;2023-05-10T13:38:32;4.10;;;2.95;;
75820;SDS011;64454;51.984;9.838;2023-05-10T13:41:01;4.50;;;2.72;;
75820;SDS011;64454;51.984;9.838;2023-05-10T13:43:28;2.78;;;2.40;;
75820;SDS011;64454;51.984;9.838;2023-05-10T13:45:55;4.23;;;2.67;;
75820;SDS011;64454;51.984;9.838;2023-05-10T13:48:22;3.90;;;2.80;;
75820;SDS011;64454;51.984;9.838;2023-05-10T13:50:49;5.32;;;2.70;;
75820;SDS011;64454;51.984;9.838;2023-05-10T13:53:16;3.35;;;2.55;;
75820;SDS011;64454;51.984;9.838;2023-05-10T13:55:42;4.82;;;2.80;;
75820;SDS011;64454;51.984;9.838;2023-05-10T13:58:11;3.47;;;2.67;;
75820;SDS011;64454;51.984;9.838;2023-05-10T14:00:37;4.63;;;2.80;;
75820;SDS011;64454;51.984;9.838;2023-05-10T14:03:04;3.22;;;2.80;;
75820;SDS011;64454;51.984;9.838;2023-05-10T14:05:33;3.45;;;2.75;;
75820;SDS011;64454;51.984;9.838;2023-05-10T14:08:00;3.88;;;2.67;;
75820;SDS011;64454;51.984;9.838;2023-05-10T14:10:28;4.72;;;2.85;;
75820;SDS011;64454;51.984;9.838;2023-05-10T14:12:56;4.55;;;2.88;;
75820;SDS011;64454;51.984;9.838;2023-05-10T14:15:24;3.80;;;2.90;;
75820;SDS011;64454;51.984;9.838;2023-05-10T14:17:50;4.38;;;3.10;;
75820;SDS011;64454;51.984;9.838;2023-05-10T14:20:17;3.65;;;2.85;;
75820;SDS011;64454;51.984;9.838;2023-05-10T14:22:44;4.50;;;2.90;;
75820;SDS011;64454;51.984;9.838;2023-05-10T14:25:11;4.10;;;3.20;;
75820;SDS011;64454;51.984;9.838;2023-05-10T14:27:40;4.55;;;3.03;;
75820;SDS011;64454;51.984;9.838;2023-05-10T14:30:07;4.50;;;2.80;;
75820;SDS011;64454;51.984;9.838;2023-05-10T14:32:36;5.20;;;2.90;;
75820;SDS011;64454;51.984;9.838;2023-05-10T14:35:03;3.43;;;2.87;;
75820;SDS011;64454;51.984;9.838;2023-05-10T14:37:32;5.10;;;2.80;;
75820;SDS011;64454;51.984;9.838;2023-05-10T14:39:59;3.92;;;3.00;;
75820;SDS011;64454;51.984;9.838;2023-05-10T14:42:26;3.50;;;2.90;;
75820;SDS011;64454;51.984;9.838;2023-05-10T14:44:53;4.78;;;3.00;;
75820;SDS011;64454;51.984;9.838;2023-05-10T14:47:20;5.00;;;2.90;;
75820;SDS011;64454;51.984;9.838;2023-05-10T14:49:48;6.47;;;3.03;;
75820;SDS011;64454;51.984;9.838;2023-05-10T14:52:15;4.68;;;2.90;;
75820;SDS011;64454;51.984;9.838;2023-05-10T14:54:42;4.10;;;2.67;;
75820;SDS011;64454;51.984;9.838;2023-05-10T14:57:09;4.30;;;2.85;;
75820;SDS011;64454;51.984;9.838;2023-05-10T14:59:36;2.80;;;2.42;;